Bluffton, Texas
Current Conditions -  °F | °C
As of 2:10 PM on Monday 26 Jan 2015 (Local Time) from KAQO Reporting Station
Clear Clear  
Wind Chill: 72°   Ceiling: Unl
Heat Index: 72°   Visibility: 10mi
Dew Point: 36°   Wind: 9mph
Humidity: 27%   Direction: 270°W
Pressure: 30.22"   Gusts: NA
Location:  30.82°N, 98.49°W
Report Text: KAQO 262010Z AUTO 27008KT 10SM CLR 22/02 A3022 RMK AO2
Loading
Personal Weather Stations






























Interactive Weather Map New forecast layout! Learn more

10-Day Weather Forecast

Advertisements
Track Severe Weather on mobile